Aviation Digital Data Service (ADDS)

Output produced by METARs form (2106 UTC 24 March 2019)
found at http://www.aviationweather.gov/metar/data/
 
TJBQ 241902Z 2419/2518 07012KT P6SM VCSH SCT025 SCT060 OVC080 
     TEMPO 2419/2421 VRB05KT 6SM -SHRA 
     FM242300 11008KT P6SM VCSH SCT022 SCT050 BKN090 
     FM250400 14003KT P6SM SKC 
     FM251400 07014G22KT P6SM SCT030 AMD NOT SKED 2502/2511
       
TJMZ 241720Z 2418/2518 27010KT P6SM VCSH SCT025 BKN050 OVC090 
     TEMPO 2418/2421 VRB10G20KT 3SM SHRA BKN020 OVC040 
     FM242200 06006KT P6SM FEW025 SCT040 SCT100 
     FM251600 25010KT P6SM VCSH SCT025 BKN050 AMD NOT SKED
       
TJPS 241720Z 2418/2518 15015G22KT P6SM VCSH FEW025 SCT050 
     FM242300 10008KT P6SM FEW030 
     FM251400 13015KT P6SM FEW030 SCT060
       
TJSJ 241720Z 2418/2518 07018G25KT P6SM VCSH FEW025 SCT050 
     FM242200 10008KT P6SM SCT030 
     FM251400 08014KT P6SM SCT025